createdAt,value
2023-11-07T00:00:01.765Z,1004.045
2023-11-07T00:07:01.728Z,1004.465
2023-11-07T00:14:01.816Z,1004.465
2023-11-07T00:21:01.884Z,1004.226
2023-11-07T00:28:02.276Z,1004.433
2023-11-07T00:35:01.838Z,1004.433
2023-11-07T00:42:01.937Z,1004.207
2023-11-07T00:49:01.579Z,1004.207
2023-11-07T00:56:02.305Z,1004.499
2023-11-07T01:00:01.789Z,1004.499
2023-11-07T01:07:01.854Z,1004.628
2023-11-07T01:14:02.152Z,1004.628
2023-11-07T01:21:01.938Z,1004.677
2023-11-07T01:28:01.511Z,1004.677
2023-11-07T01:35:01.641Z,1004.59
2023-11-07T01:42:02.322Z,1004.59
2023-11-07T01:49:01.981Z,1004.61
2023-11-07T01:56:01.969Z,1004.61
2023-11-07T02:00:01.407Z,1004.85
2023-11-07T02:07:02.192Z,1004.85
2023-11-07T02:14:01.700Z,1005.018
2023-11-07T02:21:02.106Z,1005.018
2023-11-07T02:28:02.247Z,1004.907
2023-11-07T02:35:02.392Z,1004.907
2023-11-07T02:42:01.786Z,1004.8
2023-11-07T02:49:01.965Z,1004.8
2023-11-07T02:56:01.714Z,1004.544
2023-11-07T03:00:02.276Z,1004.544
2023-11-07T03:07:01.810Z,1004.71
2023-11-07T03:14:02.155Z,1004.71
2023-11-07T03:21:01.897Z,1004.785
2023-11-07T03:28:01.811Z,1004.621
2023-11-07T03:35:02.150Z,1004.621
2023-11-07T03:42:02.194Z,1005.143
2023-11-07T03:49:02.444Z,1005.143
2023-11-07T03:56:01.949Z,1004.764
2023-11-07T04:00:01.408Z,1004.764
2023-11-07T04:07:02.102Z,1005.115
2023-11-07T04:14:01.482Z,1005.115
2023-11-07T04:21:02.289Z,1005.027
2023-11-07T04:28:02.214Z,1005.027
2023-11-07T04:35:01.619Z,1005.153
2023-11-07T04:42:02.113Z,1005.153
2023-11-07T04:49:02.213Z,1005.133
2023-11-07T04:56:02.131Z,1005.133
2023-11-07T05:00:01.893Z,1004.744
2023-11-07T05:07:01.484Z,1004.744
2023-11-07T05:14:01.813Z,1004.69
2023-11-07T05:21:02.190Z,1004.69
2023-11-07T05:28:01.694Z,1005.066
2023-11-07T05:35:01.929Z,1005.066
2023-11-07T05:42:01.885Z,1004.89
2023-11-07T05:49:02.311Z,1004.89
2023-11-07T05:56:01.605Z,1005.02
2023-11-07T06:00:02.150Z,1005.02
2023-11-07T06:07:02.369Z,1005.319
2023-11-07T06:14:01.641Z,1005.319
2023-11-07T06:21:02.134Z,1004.886
2023-11-07T06:28:01.727Z,1005.207
2023-11-07T06:35:02.343Z,1005.207
2023-11-07T06:42:02.308Z,1005.223
2023-11-07T06:49:02.950Z,1005.223
2023-11-07T06:56:02.174Z,1005.288
2023-11-07T07:00:01.658Z,1005.288
2023-11-07T07:07:01.619Z,1005.235
2023-11-07T07:14:01.878Z,1005.235
2023-11-07T07:21:01.685Z,1005.692
2023-11-07T07:28:01.802Z,1005.692
2023-11-07T07:35:02.048Z,1005.509
2023-11-07T07:42:01.818Z,1005.509
2023-11-07T07:49:02.373Z,1005.54
2023-11-07T07:56:01.821Z,1005.54
2023-11-07T08:00:02.394Z,1005.343
2023-11-07T08:07:02.126Z,1005.343
2023-11-07T08:14:02.107Z,1005.663
2023-11-07T08:21:02.288Z,1005.663
2023-11-07T08:28:01.665Z,1005.619
2023-11-07T08:35:01.943Z,1005.619
2023-11-07T08:42:02.126Z,1005.927
2023-11-07T08:49:01.737Z,1005.927
2023-11-07T08:56:01.991Z,1006.151
2023-11-07T09:00:01.550Z,1006.151
2023-11-07T09:07:01.748Z,1006.128
2023-11-07T09:14:01.683Z,1006.128
2023-11-07T09:21:01.692Z,1006.575
2023-11-07T09:28:02.117Z,1006.484
2023-11-07T09:35:01.715Z,1006.484
2023-11-07T09:42:02.181Z,1006.396
2023-11-07T09:49:02.199Z,1006.396
2023-11-07T09:56:02.342Z,1006.858
2023-11-07T10:00:02.079Z,1006.858
2023-11-07T10:07:01.989Z,1006.727
2023-11-07T10:14:02.214Z,1006.727
2023-11-07T10:21:02.425Z,1007.01
2023-11-07T10:28:01.641Z,1007.01
2023-11-07T10:35:01.539Z,1006.602
2023-11-07T10:42:01.678Z,1006.602
2023-11-07T10:49:01.891Z,1006.562
2023-11-07T10:56:01.828Z,1006.562
2023-11-07T11:00:02.420Z,1006.636
2023-11-07T11:07:01.650Z,1006.636
2023-11-07T11:14:02.227Z,1006.204
2023-11-07T11:21:01.676Z,1006.204
2023-11-07T11:28:02.001Z,1006.543
2023-11-07T11:35:02.119Z,1006.543
2023-11-07T11:42:01.735Z,1006.471
2023-11-07T11:49:01.804Z,1006.471
2023-11-07T11:56:01.825Z,1006.733
2023-11-07T12:00:02.376Z,1006.733
2023-11-07T12:07:01.720Z,1006.39
2023-11-07T12:14:01.995Z,1006.39
2023-11-07T12:21:01.689Z,1006.12
2023-11-07T12:28:01.731Z,1006.12
2023-11-07T12:35:02.082Z,1006.605
2023-11-07T12:42:02.102Z,1006.635
2023-11-07T12:49:01.688Z,1006.635
2023-11-07T12:56:02.203Z,1006.329
2023-11-07T13:00:01.721Z,1006.329
2023-11-07T13:07:01.885Z,1006.375
2023-11-07T13:14:01.742Z,1006.375
2023-11-07T13:21:01.638Z,1006.265
2023-11-07T13:28:01.804Z,1006.265
2023-11-07T13:35:02.125Z,1006.708
2023-11-07T13:42:01.693Z,1006.708
2023-11-07T13:49:02.410Z,1006.767
2023-11-07T13:56:02.164Z,1006.767
2023-11-07T14:00:01.680Z,1006.48
2023-11-07T14:07:01.624Z,1006.48
2023-11-07T14:14:02.183Z,1006.825
2023-11-07T14:21:01.559Z,1006.825
2023-11-07T14:28:02.217Z,1006.79
2023-11-07T14:35:01.408Z,1006.79
2023-11-07T14:42:02.208Z,1006.86
2023-11-07T14:49:02.056Z,1006.86
2023-11-07T14:56:02.220Z,1006.816
2023-11-07T15:00:01.724Z,1006.816
2023-11-07T15:07:01.463Z,1006.878
2023-11-07T15:14:01.889Z,1006.878
2023-11-07T15:21:01.968Z,1007.111
2023-11-07T15:28:02.195Z,1007.111
2023-11-07T15:35:04.325Z,1007.291
2023-11-07T15:42:01.663Z,1007.058
2023-11-07T15:49:01.752Z,1007.058
2023-11-07T15:56:01.613Z,1007.54
2023-11-07T16:00:02.103Z,1007.54
2023-11-07T16:07:02.041Z,1007.147
2023-11-07T16:14:01.962Z,1007.147
2023-11-07T16:21:02.190Z,1007.183
2023-11-07T16:28:05.545Z,1007.183
2023-11-07T16:35:01.596Z,1007.149
2023-11-07T16:42:01.692Z,1007.149
2023-11-07T16:49:02.335Z,1007.322
2023-11-07T16:56:02.002Z,1007.322
2023-11-07T17:00:03.480Z,1007.28
2023-11-07T17:07:02.143Z,1007.28
2023-11-07T17:14:02.387Z,1007.441
2023-11-07T17:21:01.797Z,1007.441
2023-11-07T17:28:01.964Z,1007.854
2023-11-07T17:35:02.410Z,1007.854
2023-11-07T17:42:02.149Z,1007.335
2023-11-07T17:49:02.016Z,1007.335
2023-11-07T17:56:01.426Z,1007.861
2023-11-07T18:00:01.990Z,1007.861
2023-11-07T18:07:01.412Z,1007.707
2023-11-07T18:14:02.176Z,1007.707
2023-11-07T18:21:01.503Z,1007.983
2023-11-07T18:28:01.964Z,1007.983
2023-11-07T18:35:02.036Z,1008.114
2023-11-07T18:42:01.861Z,1007.72
2023-11-07T18:49:02.372Z,1007.72
2023-11-07T18:56:02.179Z,1007.72
2023-11-07T19:00:01.740Z,1007.72
2023-11-07T19:07:02.368Z,1007.72
2023-11-07T19:14:01.839Z,1008.074
2023-11-07T19:21:01.566Z,1008.286
2023-11-07T19:28:01.988Z,1008.286
2023-11-07T19:35:01.495Z,1007.923
2023-11-07T19:42:02.470Z,1007.923
2023-11-07T19:49:01.886Z,1007.948
2023-11-07T19:56:01.935Z,1007.948
2023-11-07T20:00:01.564Z,1008.208
2023-11-07T20:07:02.741Z,1008.208
2023-11-07T20:14:02.123Z,1007.786
2023-11-07T20:21:01.596Z,1007.786
2023-11-07T20:28:02.369Z,1007.824
2023-11-07T20:35:01.617Z,1007.824
2023-11-07T20:42:02.226Z,1008.084
2023-11-07T20:49:02.910Z,1008.084
2023-11-07T20:56:02.297Z,1008.478
2023-11-07T21:00:02.054Z,1008.478
2023-11-07T21:07:02.159Z,1008.549
2023-11-07T21:14:02.056Z,1008.549
2023-11-07T21:21:02.481Z,1008.367
2023-11-07T21:28:01.860Z,1008.367
2023-11-07T21:35:01.968Z,1008.275
2023-11-07T21:42:02.043Z,1008.307
2023-11-07T21:49:01.727Z,1008.307
2023-11-07T21:56:02.365Z,1008.2
2023-11-07T22:00:01.812Z,1008.2
2023-11-07T22:07:01.884Z,1008.2
2023-11-07T22:14:01.614Z,1008.523
2023-11-07T22:21:01.635Z,1008.515
2023-11-07T22:28:01.885Z,1008.515
2023-11-07T22:35:01.882Z,1008.293
2023-11-07T22:42:01.880Z,1008.293
2023-11-07T22:49:02.279Z,1008.322
2023-11-07T22:56:02.363Z,1008.322
2023-11-07T23:00:01.867Z,1008.252
2023-11-07T23:07:01.438Z,1008.252
2023-11-07T23:14:01.678Z,1008.593
2023-11-07T23:21:02.227Z,1008.593
2023-11-07T23:28:02.136Z,1008.44
2023-11-07T23:35:01.874Z,1008.44
2023-11-07T23:42:02.271Z,1008.476
2023-11-07T23:49:02.046Z,1008.476
2023-11-07T23:56:01.812Z,1008.797
